Search for airport 
image banner adimage banner adimage banner ad
image banner ad

L73 - Poso-Kern County

Located in Famoso, United States

ICAO - L73, IATA -

Data provided by Airmate  

General information

Coordinates: N35°35'47" W119°7'42"
Elevation is 635 feet MSL.
Magnetic variation is 15° East
View others Airports in California

Operational data

Special qualification required
Current time UTC:
Current local time:
Weather at : KBFL - Meadows Field ( 19 km )
METAR: KBFL 221254Z 32007KT 9SM CLR 21/04 A2988 RMK AO2 SLP111 T02060039
TAF: KBFL 221120Z 2212/2312 35010KT P6SM SKC
View NOTAMs / SUP AIP / TFR affecting this airport [VIEW]
Communications frequencies: [VIEW]

Runways:

RWY identifierQFULength (ft)Width (ft)SurfaceLDA (ft)
16300060ASPH
34300060ASPH

Airport contact information

Address: Famoso United States

Satellite view of L73